createdAt,value
2022-10-17T00:00:45.202Z,3.57
2022-10-17T00:02:06.608Z,4.28
2022-10-17T00:03:27.511Z,4.34
2022-10-17T00:04:49.048Z,3.73
2022-10-17T00:06:11.557Z,3.88
2022-10-17T00:07:32.890Z,4.03
2022-10-17T00:08:54.369Z,4.63
2022-10-17T00:10:15.953Z,4.72
2022-10-17T00:11:37.084Z,4.51
2022-10-17T00:12:58.335Z,4.36
2022-10-17T00:14:19.814Z,4.12
2022-10-17T00:15:43.161Z,4.44
2022-10-17T00:17:04.458Z,4.10
2022-10-17T00:18:25.825Z,4.74
2022-10-17T00:19:46.969Z,4.57
2022-10-17T00:21:16.048Z,4.48
2022-10-17T00:22:37.317Z,4.93
2022-10-17T00:23:59.446Z,4.47
2022-10-17T00:25:20.671Z,4.70
2022-10-17T00:26:41.748Z,4.73
2022-10-17T00:28:02.953Z,4.69
2022-10-17T00:29:24.285Z,4.40
2022-10-17T00:30:45.193Z,4.04
2022-10-17T00:32:06.695Z,4.31
2022-10-17T00:33:28.502Z,4.81
2022-10-17T00:34:50.118Z,4.64
2022-10-17T00:37:30.690Z,3.78
2022-10-17T00:38:53.864Z,4.57
2022-10-17T00:40:16.326Z,4.57
2022-10-17T00:41:37.830Z,4.77
2022-10-17T00:42:59.167Z,5.06
2022-10-17T00:44:33.640Z,4.72
2022-10-17T00:45:56.733Z,4.64
2022-10-17T00:47:20.342Z,4.84
2022-10-17T00:48:41.940Z,4.70
2022-10-17T00:50:04.459Z,4.16
2022-10-17T00:52:42.820Z,3.95
2022-10-17T00:54:04.442Z,4.66
2022-10-17T00:55:27.929Z,4.82
2022-10-17T00:58:09.961Z,4.31
2022-10-17T00:59:32.490Z,4.68
2022-10-17T01:00:55.683Z,4.77
2022-10-17T01:02:18.574Z,4.53
2022-10-17T01:05:00.851Z,4.32
2022-10-17T01:06:22.255Z,4.42
2022-10-17T01:07:43.534Z,5.06
2022-10-17T01:09:05.136Z,6.83
2022-10-17T01:10:36.099Z,7.56
2022-10-17T01:12:04.626Z,6.73
2022-10-17T01:15:05.238Z,5.26
2022-10-17T01:16:30.132Z,5.37
2022-10-17T01:18:16.306Z,5.10
2022-10-17T01:20:00.618Z,5.71
2022-10-17T01:21:40.815Z,5.46
2022-10-17T01:23:36.719Z,5.31
2022-10-17T01:25:09.048Z,4.32
2022-10-17T01:26:52.315Z,4.24
2022-10-17T01:30:42.754Z,4.21
2022-10-17T01:32:07.522Z,4.14
2022-10-17T01:33:46.798Z,4.62
2022-10-17T01:35:11.458Z,4.08
2022-10-17T01:36:51.449Z,4.06
2022-10-17T01:38:19.644Z,4.31
2022-10-17T01:39:59.476Z,4.23
2022-10-17T01:41:30.284Z,4.85
2022-10-17T01:43:00.852Z,4.89
2022-10-17T01:45:54.822Z,5.77
2022-10-17T01:47:20.130Z,4.64
2022-10-17T01:48:42.543Z,4.38
2022-10-17T01:52:37.039Z,5.08
2022-10-17T01:54:10.905Z,5.14
2022-10-17T01:55:33.924Z,4.64
2022-10-17T01:56:58.305Z,4.76
2022-10-17T01:58:23.139Z,4.57
2022-10-17T01:59:45.868Z,5.03
2022-10-17T02:01:07.335Z,4.85
2022-10-17T02:02:29.079Z,4.16
2022-10-17T02:03:50.555Z,3.76
2022-10-17T02:05:12.208Z,3.77
2022-10-17T02:06:35.008Z,3.37
2022-10-17T02:07:56.279Z,3.61
2022-10-17T02:09:22.409Z,3.37
2022-10-17T02:10:58.898Z,3.34
2022-10-17T02:12:44.005Z,3.24
2022-10-17T02:15:58.476Z,3.94
2022-10-17T02:17:32.679Z,3.43
2022-10-17T02:19:03.348Z,3.79
2022-10-17T02:20:37.615Z,3.74
2022-10-17T02:22:17.250Z,3.44
2022-10-17T02:23:47.813Z,3.45
2022-10-17T02:25:42.740Z,3.96
2022-10-17T02:27:19.638Z,4.35
2022-10-17T02:28:53.090Z,4.64
2022-10-17T02:30:18.612Z,4.76
2022-10-17T02:31:55.623Z,4.88
2022-10-17T02:33:20.415Z,4.92
2022-10-17T02:34:49.701Z,4.52
2022-10-17T02:36:14.671Z,4.83
2022-10-17T02:37:35.745Z,5.16
2022-10-17T02:38:57.017Z,4.82
2022-10-17T02:40:18.650Z,4.16
2022-10-17T02:41:39.927Z,4.23
2022-10-17T02:43:01.384Z,4.19
2022-10-17T02:44:22.884Z,3.73
2022-10-17T02:45:43.805Z,3.86
2022-10-17T02:47:14.558Z,4.13
2022-10-17T02:48:41.757Z,4.28
2022-10-17T02:50:03.061Z,3.92
2022-10-17T02:51:28.179Z,3.65
2022-10-17T02:52:54.350Z,4.12
2022-10-17T02:55:40.651Z,3.79
2022-10-17T02:58:23.409Z,4.19
2022-10-17T02:59:44.845Z,4.28
2022-10-17T03:01:06.308Z,4.55
2022-10-17T03:02:28.451Z,5.00
2022-10-17T03:03:49.982Z,3.94
2022-10-17T03:05:12.676Z,4.70
2022-10-17T03:06:34.059Z,4.93
2022-10-17T03:07:55.630Z,5.02
2022-10-17T03:09:17.138Z,5.40
2022-10-17T03:10:38.720Z,5.49
2022-10-17T03:12:00.131Z,4.36
2022-10-17T03:13:21.503Z,3.97
2022-10-17T03:14:43.033Z,3.91
2022-10-17T03:16:04.420Z,4.70
2022-10-17T03:17:25.761Z,4.01
2022-10-17T03:18:49.379Z,4.33
2022-10-17T03:20:10.729Z,4.74
2022-10-17T03:21:32.502Z,4.45
2022-10-17T03:22:53.459Z,4.71
2022-10-17T03:24:14.585Z,5.14
2022-10-17T03:25:35.775Z,5.58
2022-10-17T03:26:57.659Z,5.66
2022-10-17T03:28:18.622Z,5.23
2022-10-17T03:29:39.575Z,5.05
2022-10-17T03:31:05.998Z,6.00
2022-10-17T03:32:27.216Z,4.88
2022-10-17T03:33:48.234Z,4.77
2022-10-17T03:35:13.981Z,4.92
2022-10-17T03:36:32.044Z,4.63
2022-10-17T03:37:54.787Z,4.86
2022-10-17T03:39:15.837Z,3.83
2022-10-17T03:40:37.233Z,4.86
2022-10-17T03:41:58.713Z,4.63
2022-10-17T03:43:20.251Z,5.54
2022-10-17T03:44:41.289Z,5.49
2022-10-17T03:46:02.730Z,5.61
2022-10-17T03:47:24.165Z,5.25
2022-10-17T03:48:45.132Z,6.06
2022-10-17T03:50:06.779Z,5.30
2022-10-17T03:51:28.090Z,5.28
2022-10-17T03:52:49.278Z,4.59
2022-10-17T03:54:10.271Z,4.54
2022-10-17T03:55:31.275Z,5.05
2022-10-17T03:56:52.693Z,4.96
2022-10-17T03:58:14.101Z,5.09
2022-10-17T03:59:35.247Z,5.32
2022-10-17T04:00:56.842Z,6.47
2022-10-17T04:02:17.860Z,5.78
2022-10-17T04:03:39.609Z,6.04
2022-10-17T04:05:01.260Z,7.38
2022-10-17T04:06:22.397Z,8.95
2022-10-17T04:07:43.727Z,7.36
2022-10-17T04:09:05.542Z,9.36
2022-10-17T04:10:26.595Z,9.78
2022-10-17T04:11:47.656Z,8.83
2022-10-17T04:13:08.877Z,7.75
2022-10-17T04:14:29.876Z,20.62
2022-10-17T04:16:06.059Z,24.43
2022-10-17T04:17:34.554Z,12.35
2022-10-17T04:18:57.117Z,8.49
2022-10-17T04:20:18.455Z,6.12
2022-10-17T04:21:39.641Z,5.69
2022-10-17T04:23:00.987Z,8.82
2022-10-17T04:24:22.153Z,9.20
2022-10-17T04:25:43.112Z,11.73
2022-10-17T04:27:04.604Z,9.93
2022-10-17T04:28:25.927Z,10.06
2022-10-17T04:29:47.292Z,9.18
2022-10-17T04:31:11.084Z,10.31
2022-10-17T04:32:33.945Z,10.32
2022-10-17T04:33:55.539Z,8.87
2022-10-17T04:35:16.813Z,8.03
2022-10-17T04:36:37.831Z,6.69
2022-10-17T04:37:59.094Z,6.33
2022-10-17T04:39:20.457Z,7.21
2022-10-17T04:40:41.694Z,6.72
2022-10-17T04:42:03.123Z,7.45
2022-10-17T04:43:24.331Z,7.22
2022-10-17T04:44:45.427Z,8.02
2022-10-17T04:46:08.916Z,7.71
2022-10-17T04:47:30.247Z,7.19
2022-10-17T04:48:54.993Z,8.55
2022-10-17T04:50:17.437Z,8.20
2022-10-17T04:51:38.739Z,8.83
2022-10-17T04:53:00.100Z,10.18
2022-10-17T04:54:21.825Z,10.87
2022-10-17T04:55:42.864Z,12.15
2022-10-17T04:57:04.317Z,13.72
2022-10-17T04:58:25.683Z,13.43
2022-10-17T04:59:46.738Z,14.58
2022-10-17T05:01:09.529Z,11.67
2022-10-17T05:02:31.140Z,10.66
2022-10-17T05:03:52.515Z,9.84
2022-10-17T05:05:14.057Z,10.72
2022-10-17T05:06:36.380Z,10.48
2022-10-17T05:07:57.746Z,10.36
2022-10-17T05:09:18.849Z,9.66
2022-10-17T05:10:43.250Z,9.14
2022-10-17T05:12:08.122Z,10.03
2022-10-17T05:13:28.544Z,10.68
2022-10-17T05:14:50.720Z,13.66
2022-10-17T05:16:12.096Z,13.18
2022-10-17T05:17:33.292Z,12.78
2022-10-17T05:20:19.436Z,13.35
2022-10-17T05:21:41.025Z,13.27
2022-10-17T05:23:02.508Z,13.56
2022-10-17T05:24:24.124Z,12.39
2022-10-17T05:25:45.915Z,13.73
2022-10-17T05:27:08.407Z,14.26
2022-10-17T05:28:29.804Z,13.28
2022-10-17T05:29:51.231Z,12.95
2022-10-17T05:31:12.755Z,12.07
2022-10-17T05:32:34.762Z,12.62
2022-10-17T05:34:01.611Z,10.91
2022-10-17T05:35:22.892Z,11.19
2022-10-17T05:36:44.027Z,10.02
2022-10-17T05:38:07.307Z,9.24
2022-10-17T05:40:49.486Z,9.80
2022-10-17T05:42:11.296Z,10.04
2022-10-17T05:43:32.808Z,10.68
2022-10-17T05:44:54.163Z,12.14
2022-10-17T05:46:16.740Z,12.38
2022-10-17T05:47:37.973Z,9.91
2022-10-17T05:48:59.469Z,9.59
2022-10-17T05:50:22.040Z,10.21
2022-10-17T05:51:43.393Z,10.18
2022-10-17T05:53:04.634Z,10.74
2022-10-17T05:54:26.350Z,11.55
2022-10-17T05:55:57.330Z,9.17
2022-10-17T05:57:18.712Z,9.69
2022-10-17T05:59:00.775Z,9.13
2022-10-17T06:00:05.327Z,9.51
2022-10-17T06:01:26.357Z,8.74
2022-10-17T06:02:47.762Z,7.93
2022-10-17T06:04:08.848Z,8.33
2022-10-17T06:05:30.323Z,8.09
2022-10-17T06:06:51.812Z,8.46
2022-10-17T06:08:13.051Z,8.75
2022-10-17T06:09:34.690Z,12.10
2022-10-17T06:10:58.972Z,12.95
2022-10-17T06:12:20.141Z,12.84
2022-10-17T06:13:43.616Z,12.09
2022-10-17T06:15:05.775Z,11.52
2022-10-17T06:16:26.850Z,18.46
2022-10-17T06:17:48.317Z,17.29
2022-10-17T06:19:09.681Z,10.14
2022-10-17T06:20:31.645Z,9.37
2022-10-17T06:21:53.622Z,9.14
2022-10-17T06:23:15.232Z,7.88
2022-10-17T06:24:36.537Z,7.88
2022-10-17T06:26:01.557Z,8.90
2022-10-17T06:27:24.335Z,7.62
2022-10-17T06:28:45.622Z,7.83
2022-10-17T06:30:08.822Z,9.09
2022-10-17T06:31:30.957Z,9.84
2022-10-17T06:32:52.611Z,8.48
2022-10-17T06:34:16.635Z,10.71
2022-10-17T06:35:38.010Z,6.78
2022-10-17T06:36:59.586Z,7.99
2022-10-17T06:38:20.796Z,7.59
2022-10-17T06:39:42.025Z,9.81
2022-10-17T06:41:06.468Z,8.41
2022-10-17T06:42:28.038Z,8.22
2022-10-17T06:43:49.557Z,8.46
2022-10-17T06:45:11.711Z,6.14
2022-10-17T06:46:33.032Z,6.45
2022-10-17T06:47:54.529Z,5.56
2022-10-17T06:49:15.880Z,5.70
2022-10-17T06:50:37.653Z,6.64
2022-10-17T06:51:59.245Z,6.49
2022-10-17T06:53:22.585Z,6.06
2022-10-17T06:54:43.869Z,6.48
2022-10-17T06:56:05.783Z,6.26
2022-10-17T06:57:27.489Z,6.46
2022-10-17T06:58:49.069Z,5.83
2022-10-17T07:00:13.730Z,6.56
2022-10-17T07:01:34.955Z,7.17
2022-10-17T07:02:56.508Z,6.67
2022-10-17T07:04:17.889Z,7.17
2022-10-17T07:05:42.437Z,9.80
2022-10-17T07:07:03.971Z,8.76
2022-10-17T07:08:25.536Z,8.38
2022-10-17T07:09:46.868Z,7.62
2022-10-17T07:12:22.232Z,8.46
2022-10-17T07:13:43.439Z,8.32
2022-10-17T07:15:05.400Z,10.99
2022-10-17T07:16:28.009Z,8.30
2022-10-17T07:19:10.336Z,8.86
2022-10-17T07:20:40.071Z,8.71
2022-10-17T07:22:01.647Z,7.64
2022-10-17T07:24:42.783Z,9.46
2022-10-17T07:26:06.151Z,7.96
2022-10-17T07:27:28.050Z,9.96
2022-10-17T07:28:52.104Z,9.27
2022-10-17T07:30:15.378Z,9.07
2022-10-17T07:31:36.686Z,8.07
2022-10-17T07:32:59.780Z,10.68
2022-10-17T07:35:43.577Z,7.61
2022-10-17T07:37:05.222Z,8.44
2022-10-17T07:38:27.390Z,9.57
2022-10-17T07:39:48.423Z,7.84
2022-10-17T07:41:14.433Z,8.10
2022-10-17T07:42:36.084Z,7.42
2022-10-17T07:43:59.763Z,7.94
2022-10-17T07:45:28.493Z,9.15
2022-10-17T07:46:51.931Z,9.54
2022-10-17T07:49:35.851Z,9.53
2022-10-17T07:50:57.767Z,10.34
2022-10-17T07:52:21.656Z,11.42
2022-10-17T07:53:46.441Z,9.61
2022-10-17T07:55:08.223Z,9.20
2022-10-17T07:57:50.107Z,5.94
2022-10-17T07:59:11.665Z,7.91
2022-10-17T08:00:36.299Z,7.69
2022-10-17T08:01:58.096Z,7.03
2022-10-17T08:03:22.164Z,7.59
2022-10-17T08:05:32.421Z,6.12
2022-10-17T08:07:05.402Z,7.78
2022-10-17T08:08:19.326Z,7.45
2022-10-17T08:09:43.631Z,8.13
2022-10-17T08:11:08.361Z,7.50
2022-10-17T08:12:31.573Z,8.06
2022-10-17T08:13:53.823Z,9.93
2022-10-17T08:15:14.956Z,10.59
2022-10-17T08:16:36.289Z,11.80
2022-10-17T08:17:57.757Z,8.93
2022-10-17T08:19:19.131Z,9.66
2022-10-17T08:20:41.470Z,10.04
2022-10-17T08:22:02.868Z,8.69
2022-10-17T08:23:24.148Z,7.80
2022-10-17T08:24:45.796Z,8.09
2022-10-17T08:26:08.112Z,8.32
2022-10-17T08:27:29.275Z,8.41
2022-10-17T08:28:50.784Z,7.97
2022-10-17T08:30:12.186Z,7.69
2022-10-17T08:31:33.972Z,8.23
2022-10-17T08:32:56.138Z,7.60
2022-10-17T08:34:17.822Z,7.48
2022-10-17T08:35:38.932Z,7.53
2022-10-17T08:37:00.174Z,8.02
2022-10-17T08:38:25.098Z,7.91
2022-10-17T08:39:48.551Z,9.49
2022-10-17T08:41:16.987Z,7.99
2022-10-17T08:42:41.876Z,8.17
2022-10-17T08:44:21.944Z,7.94
2022-10-17T08:45:55.935Z,7.48
2022-10-17T08:47:22.933Z,7.71
2022-10-17T08:48:46.540Z,7.12
2022-10-17T08:50:36.786Z,8.08
2022-10-17T08:52:02.459Z,7.08
2022-10-17T08:54:56.224Z,7.88
2022-10-17T08:57:47.451Z,7.24
2022-10-17T08:59:17.258Z,8.05
2022-10-17T09:00:41.212Z,8.93
2022-10-17T09:02:11.724Z,12.16
2022-10-17T09:05:23.894Z,7.13
2022-10-17T09:06:47.000Z,7.77
2022-10-17T09:09:54.320Z,7.96
2022-10-17T09:11:40.462Z,7.98
2022-10-17T09:13:14.519Z,7.21
2022-10-17T09:15:06.723Z,7.24
2022-10-17T09:16:37.807Z,7.79
2022-10-17T09:18:02.024Z,10.04
2022-10-17T09:20:55.132Z,6.31
2022-10-17T09:23:33.799Z,6.11
2022-10-17T09:24:59.279Z,6.98
2022-10-17T09:26:21.917Z,6.44
2022-10-17T09:27:48.942Z,7.59
2022-10-17T09:29:14.047Z,6.48
2022-10-17T09:30:58.817Z,7.37
2022-10-17T09:32:24.194Z,6.21
2022-10-17T09:33:54.650Z,5.92
2022-10-17T09:35:16.086Z,6.40
2022-10-17T09:36:39.197Z,6.83
2022-10-17T09:39:23.404Z,6.56
2022-10-17T09:40:46.446Z,9.83
2022-10-17T09:42:11.560Z,7.40
2022-10-17T09:43:34.166Z,7.79
2022-10-17T09:46:37.545Z,6.99
2022-10-17T09:48:02.670Z,7.04
2022-10-17T09:49:30.462Z,6.91
2022-10-17T09:51:08.219Z,5.64
2022-10-17T09:52:48.403Z,6.16
2022-10-17T09:54:19.092Z,6.16
2022-10-17T09:57:04.912Z,5.29
2022-10-17T09:58:53.502Z,5.46
2022-10-17T10:01:30.921Z,6.15
2022-10-17T10:03:12.005Z,5.26
2022-10-17T10:04:46.808Z,6.06
2022-10-17T10:06:08.495Z,6.81
2022-10-17T10:07:31.876Z,5.61
2022-10-17T10:11:46.155Z,7.10
2022-10-17T10:13:16.799Z,5.81
2022-10-17T10:14:38.348Z,5.67
2022-10-17T10:16:21.733Z,5.68
2022-10-17T10:17:42.820Z,6.19
2022-10-17T10:19:08.369Z,6.13
2022-10-17T10:20:36.025Z,6.45
2022-10-17T10:22:03.147Z,6.35
2022-10-17T10:23:25.218Z,6.23
2022-10-17T10:24:49.901Z,5.76
2022-10-17T10:26:25.938Z,6.13
2022-10-17T10:27:47.738Z,5.60
2022-10-17T10:29:39.619Z,5.39
2022-10-17T10:31:03.561Z,6.97
2022-10-17T10:32:27.921Z,5.48
2022-10-17T10:33:50.918Z,5.83
2022-10-17T10:35:20.461Z,5.36
2022-10-17T10:38:03.606Z,4.81
2022-10-17T10:39:33.760Z,4.78
2022-10-17T10:40:57.501Z,4.53
2022-10-17T10:42:22.793Z,8.57
2022-10-17T10:43:48.193Z,5.23
2022-10-17T10:45:42.790Z,6.17
2022-10-17T10:46:41.526Z,5.62
2022-10-17T10:48:18.620Z,4.45
2022-10-17T10:49:40.087Z,5.06
2022-10-17T10:51:12.929Z,5.12
2022-10-17T10:52:37.972Z,5.29
2022-10-17T10:54:11.043Z,4.57
2022-10-17T10:55:53.086Z,5.43
2022-10-17T10:57:18.215Z,4.24
2022-10-17T10:58:46.961Z,4.20
2022-10-17T11:00:18.537Z,4.19
2022-10-17T11:02:05.125Z,4.85
2022-10-17T11:04:46.436Z,4.21
2022-10-17T11:06:13.938Z,4.37
2022-10-17T11:07:48.083Z,4.42
2022-10-17T11:09:33.763Z,3.94
2022-10-17T11:11:22.776Z,3.73
2022-10-17T11:12:49.784Z,5.56
2022-10-17T11:14:20.739Z,4.61
2022-10-17T11:15:48.837Z,4.76
2022-10-17T11:17:13.999Z,4.12
2022-10-17T11:20:11.222Z,3.91
2022-10-17T11:21:48.405Z,3.99
2022-10-17T11:23:22.469Z,4.02
2022-10-17T11:25:02.080Z,4.52
2022-10-17T11:26:33.163Z,4.18
2022-10-17T11:27:55.103Z,4.22
2022-10-17T11:29:18.562Z,4.02
2022-10-17T11:32:15.415Z,4.61
2022-10-17T11:33:46.813Z,5.03
2022-10-17T11:35:29.367Z,4.83
2022-10-17T11:36:52.977Z,5.17
2022-10-17T11:38:38.286Z,4.53
2022-10-17T11:40:06.577Z,4.45
2022-10-17T11:41:39.589Z,4.53
2022-10-17T11:44:36.383Z,5.29
2022-10-17T11:47:39.373Z,4.71
2022-10-17T11:49:07.944Z,4.62
2022-10-17T11:52:44.305Z,4.17
2022-10-17T11:53:52.422Z,4.49
2022-10-17T11:55:20.267Z,4.07
2022-10-17T11:57:05.254Z,4.07
2022-10-17T11:58:42.231Z,4.52
2022-10-17T12:00:13.230Z,4.78
2022-10-17T12:01:40.622Z,4.03
2022-10-17T12:03:14.792Z,3.74
2022-10-17T12:04:55.067Z,4.01
2022-10-17T12:06:38.573Z,4.31
2022-10-17T12:08:12.746Z,4.28
2022-10-17T12:09:53.198Z,3.88
2022-10-17T12:11:34.758Z,4.02
2022-10-17T12:12:56.821Z,4.84
2022-10-17T12:16:00.374Z,4.27
2022-10-17T12:17:30.938Z,4.64
2022-10-17T12:19:05.813Z,3.76
2022-10-17T12:20:29.993Z,3.71
2022-10-17T12:22:00.192Z,3.96
2022-10-17T12:23:25.052Z,3.53
2022-10-17T12:25:02.323Z,4.22
2022-10-17T12:26:28.095Z,3.92
2022-10-17T12:27:49.875Z,3.43
2022-10-17T12:30:26.585Z,3.87
2022-10-17T12:31:48.005Z,4.33
2022-10-17T12:33:18.093Z,4.01
2022-10-17T12:34:39.473Z,3.66
2022-10-17T12:37:53.583Z,3.59
2022-10-17T12:39:19.072Z,3.29
2022-10-17T12:40:49.024Z,3.43
2022-10-17T12:42:29.246Z,3.44
2022-10-17T12:45:48.486Z,3.93
2022-10-17T12:47:13.520Z,3.91
2022-10-17T12:48:41.336Z,3.59
2022-10-17T12:50:03.130Z,3.26
2022-10-17T12:51:40.724Z,4.04
2022-10-17T12:52:54.061Z,3.47
2022-10-17T12:54:16.008Z,4.19
2022-10-17T12:55:37.169Z,3.52
2022-10-17T12:56:58.747Z,3.28
2022-10-17T12:58:21.652Z,4.18
2022-10-17T12:59:45.076Z,4.32
2022-10-17T13:01:23.144Z,4.41
2022-10-17T13:02:35.436Z,4.30
2022-10-17T13:03:59.088Z,3.58
2022-10-17T13:05:29.390Z,3.94
2022-10-17T13:06:52.302Z,5.02
2022-10-17T13:09:37.317Z,3.67
2022-10-17T13:11:04.030Z,3.47
2022-10-17T13:12:25.200Z,3.73
2022-10-17T13:13:54.230Z,3.51
2022-10-17T13:15:17.472Z,9.97
2022-10-17T13:16:41.148Z,4.17
2022-10-17T13:18:02.868Z,3.22
2022-10-17T13:19:26.174Z,3.36
2022-10-17T13:21:05.336Z,3.34
2022-10-17T13:22:32.070Z,4.58
2022-10-17T13:23:53.566Z,3.29
2022-10-17T13:25:17.109Z,4.30
2022-10-17T13:26:38.440Z,4.16
2022-10-17T13:29:18.366Z,3.36
2022-10-17T13:30:39.775Z,3.29
2022-10-17T13:32:02.679Z,3.94
2022-10-17T13:35:10.193Z,4.27
2022-10-17T13:36:32.268Z,4.26
2022-10-17T13:39:54.382Z,6.25
2022-10-17T13:41:22.920Z,5.81
2022-10-17T13:43:50.996Z,3.82
2022-10-17T13:46:39.173Z,4.85
2022-10-17T13:48:04.567Z,5.03
2022-10-17T13:49:41.549Z,5.19
2022-10-17T13:51:06.001Z,5.99
2022-10-17T13:52:29.776Z,5.19
2022-10-17T13:53:51.696Z,5.64
2022-10-17T13:55:17.427Z,5.16
2022-10-17T13:56:38.683Z,5.64
2022-10-17T13:59:35.582Z,5.35
2022-10-17T14:00:57.434Z,5.04
2022-10-17T14:02:21.185Z,5.54
2022-10-17T14:03:48.753Z,6.19
2022-10-17T14:05:19.553Z,7.26
2022-10-17T14:06:34.185Z,8.39
2022-10-17T14:08:14.446Z,6.76
2022-10-17T14:09:28.386Z,6.38
2022-10-17T14:10:50.296Z,7.06
2022-10-17T14:12:13.036Z,9.27
2022-10-17T14:13:34.570Z,5.92
2022-10-17T14:15:10.118Z,8.53
2022-10-17T14:16:20.176Z,10.28
2022-10-17T14:17:42.338Z,6.41
2022-10-17T14:19:04.220Z,5.66
2022-10-17T14:21:19.791Z,6.27
2022-10-17T14:21:55.435Z,6.08
2022-10-17T14:23:33.576Z,7.18
2022-10-17T14:24:58.025Z,6.41
2022-10-17T14:26:20.527Z,6.69
2022-10-17T14:29:11.085Z,6.92
2022-10-17T14:30:55.194Z,6.88
2022-10-17T14:32:05.363Z,7.32
2022-10-17T14:33:28.069Z,6.67
2022-10-17T14:34:57.519Z,7.73
2022-10-17T14:36:18.051Z,8.04
2022-10-17T14:37:44.405Z,8.15
2022-10-17T14:39:11.895Z,8.17
2022-10-17T14:40:31.557Z,8.66
2022-10-17T14:41:53.148Z,9.64
2022-10-17T14:43:14.444Z,7.83
2022-10-17T14:44:36.081Z,8.37
2022-10-17T14:46:00.380Z,8.11
2022-10-17T14:47:43.137Z,8.01
2022-10-17T14:48:57.417Z,10.25
2022-10-17T14:50:24.822Z,8.78
2022-10-17T14:53:22.495Z,8.29
2022-10-17T14:54:47.814Z,9.21
2022-10-17T14:57:56.055Z,9.69
2022-10-17T14:59:30.113Z,10.79
2022-10-17T15:00:41.001Z,9.11
2022-10-17T15:02:02.418Z,10.03
2022-10-17T15:03:23.717Z,10.57
2022-10-17T15:04:45.141Z,10.42
2022-10-17T15:06:18.458Z,10.33
2022-10-17T15:07:40.196Z,10.78
2022-10-17T15:09:02.573Z,11.08
2022-10-17T15:10:27.706Z,10.69
2022-10-17T15:11:50.565Z,10.99
2022-10-17T15:13:29.482Z,12.50
2022-10-17T15:14:35.082Z,14.55
2022-10-17T15:15:56.480Z,12.90
2022-10-17T15:18:36.290Z,19.49
2022-10-17T15:19:57.578Z,22.55
2022-10-17T15:21:36.866Z,18.84
2022-10-17T15:22:43.925Z,25.65
2022-10-17T15:24:06.358Z,23.52
2022-10-17T15:25:28.952Z,21.29
2022-10-17T15:26:51.536Z,18.83
2022-10-17T15:29:36.009Z,34.78
2022-10-17T15:30:58.256Z,38.37
2022-10-17T15:32:19.827Z,55.62
2022-10-17T15:33:44.328Z,30.23
2022-10-17T15:35:06.157Z,28.39
2022-10-17T15:36:33.734Z,23.18
2022-10-17T15:37:55.205Z,21.54
2022-10-17T15:39:17.391Z,28.52
2022-10-17T15:40:39.143Z,32.54
2022-10-17T15:42:00.060Z,34.48
2022-10-17T15:43:21.584Z,23.18
2022-10-17T15:44:42.986Z,32.01
2022-10-17T15:46:08.749Z,26.44
2022-10-17T15:47:31.339Z,26.89
2022-10-17T15:48:53.144Z,31.01
2022-10-17T15:50:15.096Z,19.84
2022-10-17T15:51:37.085Z,19.58
2022-10-17T15:53:00.913Z,15.94
2022-10-17T15:54:22.146Z,16.17
2022-10-17T15:55:43.156Z,33.06
2022-10-17T15:57:04.754Z,21.28
2022-10-17T15:58:31.194Z,16.92
2022-10-17T15:59:52.814Z,19.26
2022-10-17T16:02:34.714Z,23.32
2022-10-17T16:03:56.540Z,22.83
2022-10-17T16:05:20.191Z,23.33
2022-10-17T16:06:44.247Z,22.09
2022-10-17T16:08:05.331Z,29.96
2022-10-17T16:09:26.974Z,24.49
2022-10-17T16:10:48.691Z,24.34
2022-10-17T16:12:15.977Z,19.71
2022-10-17T16:13:47.800Z,20.18
2022-10-17T16:15:25.651Z,19.74
2022-10-17T16:16:48.041Z,23.35
2022-10-17T16:18:10.090Z,26.10
2022-10-17T16:19:31.442Z,24.06
2022-10-17T16:20:55.413Z,22.43
2022-10-17T16:22:30.545Z,26.09
2022-10-17T16:23:52.148Z,15.84
2022-10-17T16:26:31.482Z,14.35
2022-10-17T16:27:54.909Z,14.91
2022-10-17T16:29:17.519Z,14.44
2022-10-17T16:30:44.505Z,13.77
2022-10-17T16:32:05.825Z,14.83
2022-10-17T16:33:27.528Z,12.27
2022-10-17T16:34:49.966Z,11.26
2022-10-17T16:36:11.412Z,12.50
2022-10-17T16:37:32.655Z,12.21
2022-10-17T16:38:54.092Z,11.66
2022-10-17T16:40:16.614Z,11.25
2022-10-17T16:41:38.069Z,11.88
2022-10-17T16:42:59.669Z,12.49
2022-10-17T16:44:21.934Z,13.47
2022-10-17T16:45:44.120Z,12.46
2022-10-17T16:47:05.246Z,13.93
2022-10-17T16:48:29.809Z,16.38
2022-10-17T16:49:51.513Z,15.54
2022-10-17T16:51:14.536Z,17.24
2022-10-17T16:53:56.856Z,20.60
2022-10-17T16:55:17.980Z,17.31
2022-10-17T16:56:39.590Z,18.38
2022-10-17T16:58:01.303Z,23.34
2022-10-17T16:59:23.619Z,24.00
2022-10-17T17:00:44.848Z,25.18
2022-10-17T17:02:06.333Z,25.41
2022-10-17T17:03:27.876Z,25.59
2022-10-17T17:04:48.903Z,25.45
2022-10-17T17:06:15.481Z,25.63
2022-10-17T17:07:36.740Z,25.34
2022-10-17T17:08:59.807Z,22.92
2022-10-17T17:10:20.977Z,20.14
2022-10-17T17:13:08.556Z,21.52
2022-10-17T17:14:29.682Z,20.28
2022-10-17T17:15:53.315Z,19.49
2022-10-17T17:17:24.445Z,19.81
2022-10-17T17:18:38.278Z,19.41
2022-10-17T17:19:59.433Z,18.33
2022-10-17T17:21:20.466Z,15.82
2022-10-17T17:22:41.995Z,17.12
2022-10-17T17:24:04.787Z,14.74
2022-10-17T17:25:25.908Z,15.73
2022-10-17T17:26:52.885Z,15.42
2022-10-17T17:28:15.230Z,13.55
2022-10-17T17:29:37.598Z,9.48
2022-10-17T17:31:00.194Z,15.57
2022-10-17T17:32:23.689Z,15.08
2022-10-17T17:33:45.220Z,13.04
2022-10-17T17:35:08.773Z,13.02
2022-10-17T17:36:32.890Z,11.83
2022-10-17T17:37:54.047Z,12.42
2022-10-17T17:39:15.370Z,14.43
2022-10-17T17:40:36.870Z,13.78
2022-10-17T17:41:58.560Z,16.92
2022-10-17T17:43:19.791Z,20.51
2022-10-17T17:44:40.836Z,16.77
2022-10-17T17:46:02.348Z,16.58
2022-10-17T17:47:23.799Z,17.04
2022-10-17T17:48:46.643Z,18.44
2022-10-17T17:50:12.466Z,18.41
2022-10-17T17:51:33.778Z,18.41
2022-10-17T17:52:55.617Z,18.50
2022-10-17T17:54:16.699Z,19.51
2022-10-17T17:55:39.635Z,19.09
2022-10-17T17:57:02.742Z,18.98
2022-10-17T17:58:24.279Z,16.64
2022-10-17T17:59:46.181Z,17.98
2022-10-17T18:02:22.232Z,17.12
2022-10-17T18:03:44.232Z,16.77
2022-10-17T18:05:06.584Z,16.23
2022-10-17T18:06:28.075Z,16.39
2022-10-17T18:07:49.483Z,16.94
2022-10-17T18:09:11.288Z,17.11
2022-10-17T18:10:32.557Z,16.32
2022-10-17T18:11:54.391Z,15.53
2022-10-17T18:13:15.550Z,16.59
2022-10-17T18:14:37.003Z,16.12
2022-10-17T18:16:00.150Z,16.41
2022-10-17T18:17:21.677Z,15.60
2022-10-17T18:18:43.896Z,15.80
2022-10-17T18:21:27.253Z,16.47
2022-10-17T18:22:50.484Z,17.27
2022-10-17T18:25:32.543Z,15.13
2022-10-17T18:26:54.108Z,16.77
2022-10-17T18:28:19.020Z,16.17
2022-10-17T18:29:40.357Z,15.91
2022-10-17T18:32:22.778Z,17.25
2022-10-17T18:33:44.301Z,16.01
2022-10-17T18:35:06.045Z,16.42
2022-10-17T18:36:28.302Z,16.75
2022-10-17T18:37:49.800Z,16.44
2022-10-17T18:39:12.176Z,16.61
2022-10-17T18:40:33.525Z,17.16
2022-10-17T18:41:55.173Z,16.57
2022-10-17T18:43:17.591Z,17.01
2022-10-17T18:44:39.155Z,17.41
2022-10-17T18:46:02.149Z,18.88
2022-10-17T18:47:23.383Z,17.85
2022-10-17T18:48:45.149Z,27.29
2022-10-17T18:50:07.279Z,24.93
2022-10-17T18:51:28.842Z,29.52
2022-10-17T18:52:50.095Z,22.95
2022-10-17T18:54:13.461Z,29.71
2022-10-17T18:56:57.403Z,28.47
2022-10-17T18:58:18.901Z,35.46
2022-10-17T18:59:40.551Z,30.27
2022-10-17T19:01:08.044Z,30.12
2022-10-17T19:02:30.000Z,30.86
2022-10-17T19:03:53.303Z,30.62
2022-10-17T19:05:14.843Z,30.46
2022-10-17T19:06:36.475Z,32.11
2022-10-17T19:07:58.071Z,33.21
2022-10-17T19:09:19.970Z,28.41
2022-10-17T19:10:41.597Z,28.08
2022-10-17T19:12:02.906Z,24.65
2022-10-17T19:13:24.181Z,27.29
2022-10-17T19:14:45.377Z,25.29
2022-10-17T19:16:07.996Z,25.74
2022-10-17T19:17:29.744Z,24.69
2022-10-17T19:18:53.134Z,23.80
2022-10-17T19:20:15.715Z,24.19
2022-10-17T19:21:37.180Z,22.42
2022-10-17T19:22:58.542Z,23.13
2022-10-17T19:24:21.455Z,22.74
2022-10-17T19:25:42.766Z,23.61
2022-10-17T19:27:04.001Z,22.73
2022-10-17T19:28:25.395Z,22.36
2022-10-17T19:29:46.810Z,22.73
2022-10-17T19:31:08.277Z,24.58
2022-10-17T19:32:29.787Z,23.56
2022-10-17T19:33:51.611Z,25.74
2022-10-17T19:35:13.610Z,23.58
2022-10-17T19:36:34.861Z,22.87
2022-10-17T19:37:56.342Z,23.02
2022-10-17T19:39:19.375Z,23.26
2022-10-17T19:40:41.797Z,22.27
2022-10-17T19:42:06.729Z,22.80
2022-10-17T19:44:47.581Z,23.32
2022-10-17T19:46:14.250Z,24.57
2022-10-17T19:47:35.809Z,24.31
2022-10-17T19:48:57.192Z,25.82
2022-10-17T19:50:19.638Z,23.81
2022-10-17T19:51:40.769Z,25.08
2022-10-17T19:53:02.507Z,25.66
2022-10-17T19:54:24.244Z,25.25
2022-10-17T19:55:45.486Z,24.38
2022-10-17T19:57:09.627Z,24.33
2022-10-17T19:58:32.671Z,24.29
2022-10-17T19:59:55.962Z,23.31
2022-10-17T20:01:19.810Z,24.57
2022-10-17T20:02:42.239Z,24.17
2022-10-17T20:04:03.415Z,25.44
2022-10-17T20:05:28.061Z,22.84
2022-10-17T20:06:48.262Z,27.84